Avetrana, Italy

10:19 AM CET on December 04, 2016 (GMT +0100)
ctd. Zingaro | | Change Station

Elev 279 ft 40.39 °N, 17.63 °E | Updated 4 minutes ago

Partly Cloudy
Partly Cloudy
53.9 °F
Feels Like 53.9 °F
N
4.1
Wind Variable Wind from NNE
Gusts 7.5 mph

Today
High -- | Low -- °F
--% Chance of Precip.
Yesterday
High -- | Low -- °F
Precip. -- in
Pressure 30.21 in
Visibility 5.6 miles
Clouds Few 3000 ft
Dew Point 46 °F
Humidity 75%
Rainfall 0.00 in
Snow Depth Not available.
6:55 AM 4:22 PM
Waxing Crescent, 21% visible
METAR LIBN 040855Z VRB01KT 9000 FEW030 13/12 Q1023 RMK BKN SCT100 BKN200 VIS MIN 9000 WIND THR14 VRB01KT WIND THR32 VRB01KT BLU
Pressure 30.21 in
Visibility 5.6 miles
Clouds Few 3000 ft
Dew Point 46 °F
Humidity 75%
Rainfall 0.00 in
Snow Depth Not available.
6:55 AM 4:22 PM
Waxing Crescent, 21% visible
METAR LIBN 040855Z VRB01KT 9000 FEW030 13/12 Q1023 RMK BKN SCT100 BKN200 VIS MIN 9000 WIND THR14 VRB01KT WIND THR32 VRB01KT BLU

10-Day Weather Forecast

×

Almanac

Astronomy

Dec. 04, 2016 Rise Set
Actual Time
Civil Twilight
Nautical Twilight
Astronomical Twilight
Moon
Length of Visible Light
Length of Day
Tomorrow will be .
, % of the Moon is Illuminated

Today's Extremes

Country Highs Country Lows

Community

WunderPhotos

Upload Photos

1,955,587 photos uploaded!

WunderBlog® & News

Nearby

Air Quality

  Air Quality AQ Index Pollutant
Not available.

Snow Depth

Station Depth Elevation

Earthquake Activity

City Distance Mag. Time & Date
Minimum magnitude displayed is 2.5.

Coastal Water Temperatures

Place Temperature

Stations

Nearby Weather Stations

Station Location Temp. Windchill Dew Point Humidity Wind Precip. Elev Updated Type